Terminal Aerodrome Forecast
Issued by NWS Boston, MA

Home | Current Version | Previous Version | Text Only | Print | Product List | Glossary On
Versions: 1 2 3 4 5 6 7 8 9 10 11 12 13 14 15 16 17 18 19 20 21 22 23 24 25 26 27 28 29 30 31 32 33 34 35 36 37 38 39 40 41 42 43 44 45 46 47 48
000
FTUS41 KBOX 271137
TAFBDL
TAF
KBDL 271137Z 2712/2818 36018G28KT 3/4SM -SN BR OVC010
     FM271600 35017G27KT 3/4SM -SN BR OVC012
     FM271900 35016G25KT 1SM -SN BR OVC015
     FM272300 34016G24KT P6SM OVC025
     FM280200 34014G22KT P6SM OVC035
     FM280700 33011KT P6SM OVC090=

USA.gov is the U.S. government's official web portal to all federal, state and local government web resources and services.